Time,TemperatureF,DewpointF,PressureIn,WindDirection,WindDirectionDegrees,WindSpeedMPH,WindSpeedGustMPH,Humidity,HourlyPrecipIn,Conditions,Clouds,dailyrainin,SoftwareType,DateUTC
2013-02-26 00:12:00,33.6,30.0,29.85,East,92,11.0,22.0,86,0.00,,,0.00,weatherlink.com 1.10,2013-02-26 06:12:00,
2013-02-26 00:27:00,33.7,30.0,29.85,East,85,17.0,26.0,85,0.00,,,0.00,weatherlink.com 1.10,2013-02-26 06:27:00,
2013-02-26 00:42:00,33.8,30.0,29.83,ENE,61,16.0,23.0,85,0.00,,,0.00,weatherlink.com 1.10,2013-02-26 06:42:00,
2013-02-26 00:57:00,33.8,30.0,29.82,East,96,8.0,26.0,85,0.00,,,0.00,weatherlink.com 1.10,2013-02-26 06:57:00,
2013-02-26 01:12:00,33.8,30.0,29.82,ENE,61,12.0,24.0,85,0.00,,,0.00,weatherlink.com 1.10,2013-02-26 07:12:00,
2013-02-26 01:27:00,34.0,30.0,29.82,ENE,65,5.0,18.0,84,0.00,,,0.00,weatherlink.com 1.10,2013-02-26 07:27:00,
2013-02-26 01:42:00,33.8,30.0,29.81,NE,38,9.0,18.0,85,0.00,,,0.00,weatherlink.com 1.10,2013-02-26 07:42:00,
2013-02-26 01:57:00,33.5,30.0,29.78,NE,47,9.0,19.0,85,0.00,,,0.00,weatherlink.com 1.10,2013-02-26 07:57:00,
2013-02-26 02:13:00,33.4,29.0,29.76,NE,39,17.0,24.0,85,0.00,,,0.00,weatherlink.com 1.10,2013-02-26 08:13:00,
2013-02-26 02:28:00,33.4,29.0,29.75,East,87,10.0,20.0,85,0.00,,,0.00,weatherlink.com 1.10,2013-02-26 08:28:00,
2013-02-26 02:43:00,33.6,30.0,29.76,ENE,76,10.0,23.0,85,0.00,,,0.00,weatherlink.com 1.10,2013-02-26 08:43:00,
2013-02-26 02:58:00,33.4,29.0,29.72,ENE,71,12.0,26.0,85,0.00,,,0.00,weatherlink.com 1.10,2013-02-26 08:58:00,
2013-02-26 03:13:00,33.5,29.0,29.71,NE,43,21.0,32.0,84,0.00,,,0.00,weatherlink.com 1.10,2013-02-26 09:13:00,
2013-02-26 03:28:00,33.4,29.0,29.68,NNE,19,12.0,32.0,83,0.00,,,0.00,weatherlink.com 1.10,2013-02-26 09:28:00,
2013-02-26 03:43:00,33.5,29.0,29.68,ENE,60,7.0,27.0,82,0.00,,,0.00,weatherlink.com 1.10,2013-02-26 09:43:00,
2013-02-26 03:58:00,33.6,29.0,29.66,ENE,66,13.0,32.0,82,0.00,,,0.00,weatherlink.com 1.10,2013-02-26 09:58:00,
2013-02-26 04:13:00,33.6,29.0,29.63,ENE,61,12.0,30.0,82,0.00,,,0.00,weatherlink.com 1.10,2013-02-26 10:13:00,
2013-02-26 04:28:00,33.7,28.0,29.63,ENE,57,25.0,31.0,81,0.00,,,0.00,weatherlink.com 1.10,2013-02-26 10:28:00,
2013-02-26 04:43:00,33.9,28.0,29.66,East,93,16.0,29.0,80,0.00,,,0.00,weatherlink.com 1.10,2013-02-26 10:43:00,
2013-02-26 04:58:00,33.7,29.0,29.68,East,88,16.0,26.0,82,0.00,,,0.00,weatherlink.com 1.10,2013-02-26 10:58:00,
2013-02-26 05:13:00,33.4,29.0,29.68,ENE,61,8.0,25.0,83,0.00,,,0.00,weatherlink.com 1.10,2013-02-26 11:13:00,
2013-02-26 05:28:00,33.3,29.0,29.67,East,84,24.0,27.0,83,0.00,,,0.00,weatherlink.com 1.10,2013-02-26 11:28:00,
2013-02-26 05:43:00,32.0,29.0,29.63,NE,36,17.0,29.0,90,0.00,,,0.00,weatherlink.com 1.10,2013-02-26 11:43:00,
2013-02-26 05:58:00,32.0,30.0,29.60,ENE,59,21.0,31.0,93,0.00,,,0.00,weatherlink.com 1.10,2013-02-26 11:58:00,
2013-02-26 06:13:00,32.3,31.0,29.59,ENE,63,23.0,37.0,93,0.01,,,0.01,weatherlink.com 1.10,2013-02-26 12:13:00,
2013-02-26 06:28:00,32.4,30.0,29.60,ENE,57,17.0,30.0,92,0.02,,,0.02,weatherlink.com 1.10,2013-02-26 12:28:00,
2013-02-26 06:43:00,32.6,31.0,29.60,NE,45,15.0,23.0,92,0.05,,,0.05,weatherlink.com 1.10,2013-02-26 12:43:00,
2013-02-26 06:58:00,32.6,31.0,29.57,ENE,74,14.0,27.0,92,0.09,,,0.09,weatherlink.com 1.10,2013-02-26 12:58:00,
2013-02-26 07:13:00,32.4,30.0,29.55,NE,45,7.0,29.0,92,0.11,,,0.12,weatherlink.com 1.10,2013-02-26 13:13:00,
2013-02-26 07:28:00,32.3,30.0,29.56,NNE,28,13.0,25.0,92,0.13,,,0.15,weatherlink.com 1.10,2013-02-26 13:28:00,
2013-02-26 07:43:00,32.3,31.0,29.51,NE,55,14.0,25.0,93,0.12,,,0.17,weatherlink.com 1.10,2013-02-26 13:43:00,
2013-02-26 07:58:00,32.3,31.0,29.51,ENE,65,8.0,25.0,93,0.09,,,0.18,weatherlink.com 1.10,2013-02-26 13:58:00,
2013-02-26 08:13:00,32.5,31.0,29.54,East,94,14.0,17.0,93,0.07,,,0.19,weatherlink.com 1.10,2013-02-26 14:13:00,
2013-02-26 08:28:00,32.4,31.0,29.54,ENE,77,12.0,18.0,94,0.08,,,0.23,weatherlink.com 1.10,2013-02-26 14:28:00,
2013-02-26 08:43:00,32.3,31.0,29.54,NE,47,10.0,14.0,94,0.10,,,0.27,weatherlink.com 1.10,2013-02-26 14:43:00,
2013-02-26 09:14:00,32.3,31.0,29.54,East,82,0.0,12.0,94,0.12,,,0.32,weatherlink.com 1.10,2013-02-26 15:14:00,
2013-02-26 09:28:00,32.4,31.0,29.53,NE,53,0.0,0.0,94,0.10,,,0.33,weatherlink.com 1.10,2013-02-26 15:28:00,
2013-02-26 09:59:00,32.5,31.0,29.51,NE,53,0.0,0.0,94,0.05,,,0.35,weatherlink.com 1.10,2013-02-26 15:59:00,
2013-02-26 10:14:00,32.5,31.0,29.51,NE,53,0.0,0.0,94,0.04,,,0.36,weatherlink.com 1.10,2013-02-26 16:14:00,
2013-02-26 10:44:00,32.5,31.0,29.49,NE,53,0.0,0.0,95,0.04,,,0.38,weatherlink.com 1.10,2013-02-26 16:44:00,
2013-02-26 10:59:00,32.4,31.0,29.49,NE,53,0.0,0.0,95,0.04,,,0.39,weatherlink.com 1.10,2013-02-26 16:59:00,
2013-02-26 11:14:00,32.5,31.0,29.48,NE,53,0.0,0.0,95,0.04,,,0.40,weatherlink.com 1.10,2013-02-26 17:14:00,
2013-02-26 11:29:00,32.5,31.0,29.48,NE,53,0.0,0.0,95,0.04,,,0.41,weatherlink.com 1.10,2013-02-26 17:29:00,
2013-02-26 11:59:00,32.5,31.0,29.47,NE,53,0.0,0.0,95,0.04,,,0.43,weatherlink.com 1.10,2013-02-26 17:59:00,
2013-02-26 12:14:00,32.5,31.0,29.47,NE,53,0.0,0.0,95,0.04,,,0.44,weatherlink.com 1.10,2013-02-26 18:14:00,
2013-02-26 12:29:00,32.5,31.0,29.47,NE,53,0.0,0.0,95,0.03,,,0.44,weatherlink.com 1.10,2013-02-26 18:29:00,
2013-02-26 12:44:00,32.5,32.0,29.46,NE,53,0.0,0.0,96,0.02,,,0.44,weatherlink.com 1.10,2013-02-26 18:44:00,
2013-02-26 12:59:00,32.4,31.0,29.46,NE,54,0.0,0.0,95,0.01,,,0.44,weatherlink.com 1.10,2013-02-26 18:59:00,
2013-02-26 13:14:00,32.4,31.0,29.46,NE,54,0.0,0.0,96,0.01,,,0.45,weatherlink.com 1.10,2013-02-26 19:14:00,
2013-02-26 13:29:00,32.4,31.0,29.45,NE,53,0.0,0.0,96,0.01,,,0.45,weatherlink.com 1.10,2013-02-26 19:29:00,
2013-02-26 13:44:00,32.4,31.0,29.45,NE,51,0.0,0.0,96,0.02,,,0.46,weatherlink.com 1.10,2013-02-26 19:44:00,
2013-02-26 13:59:00,32.4,31.0,29.45,NE,55,0.0,0.0,96,0.02,,,0.46,weatherlink.com 1.10,2013-02-26 19:59:00,
2013-02-26 14:14:00,32.4,31.0,29.45,ENE,67,0.0,0.0,96,0.01,,,0.46,weatherlink.com 1.10,2013-02-26 20:14:00,
2013-02-26 14:44:00,32.5,32.0,29.45,ENE,62,0.0,0.0,96,0.01,,,0.47,weatherlink.com 1.10,2013-02-26 20:44:00,
2013-02-26 15:14:00,32.7,32.0,29.45,NE,34,0.0,0.0,96,0.02,,,0.48,weatherlink.com 1.10,2013-02-26 21:14:00,
2013-02-26 15:29:00,32.7,32.0,29.45,NNE,25,0.0,0.0,96,0.02,,,0.49,weatherlink.com 1.10,2013-02-26 21:29:00,
2013-02-26 15:44:00,32.5,32.0,29.46,NE,40,0.0,0.0,96,0.03,,,0.50,weatherlink.com 1.10,2013-02-26 21:44:00,
2013-02-26 15:59:00,32.5,32.0,29.46,NE,48,0.0,0.0,97,0.02,,,0.50,weatherlink.com 1.10,2013-02-26 21:59:00,
2013-02-26 16:14:00,32.5,32.0,29.47,NNE,19,0.0,0.0,96,0.03,,,0.51,weatherlink.com 1.10,2013-02-26 22:14:00,
2013-02-26 16:29:00,32.5,32.0,29.47,NE,49,0.0,0.0,96,0.02,,,0.51,weatherlink.com 1.10,2013-02-26 22:29:00,
2013-02-26 16:44:00,32.4,31.0,29.48,NE,36,0.0,0.0,96,0.01,,,0.51,weatherlink.com 1.10,2013-02-26 22:44:00,
2013-02-26 17:14:00,32.4,32.0,29.48,NNE,24,0.0,0.0,97,0.01,,,0.52,weatherlink.com 1.10,2013-02-26 23:14:00,
2013-02-26 17:29:00,32.4,32.0,29.48,NE,43,0.0,0.0,97,0.01,,,0.52,weatherlink.com 1.10,2013-02-26 23:29:00,
2013-02-26 17:44:00,32.3,32.0,29.48,NE,36,0.0,0.0,97,0.01,,,0.52,weatherlink.com 1.10,2013-02-26 23:44:00,
2013-02-26 18:14:00,32.3,32.0,29.50,NE,45,0.0,0.0,97,0.00,,,0.52,weatherlink.com 1.10,2013-02-27 00:14:00,
2013-02-26 18:29:00,32.3,32.0,29.51,NNE,32,0.0,0.0,97,0.00,,,0.52,weatherlink.com 1.10,2013-02-27 00:29:00,
2013-02-26 18:44:00,32.3,32.0,29.51,NE,56,0.0,0.0,97,0.00,,,0.52,weatherlink.com 1.10,2013-02-27 00:44:00,
2013-02-26 18:59:00,32.3,32.0,29.51,NNE,17,0.0,0.0,97,0.00,,,0.52,weatherlink.com 1.10,2013-02-27 00:59:00,
2013-02-26 19:14:00,32.3,32.0,29.51,NNE,22,0.0,0.0,97,0.01,,,0.53,weatherlink.com 1.10,2013-02-27 01:14:00,
2013-02-26 19:29:00,32.2,32.0,29.50,North,5,0.0,0.0,97,0.01,,,0.53,weatherlink.com 1.10,2013-02-27 01:29:00,
2013-02-26 19:44:00,32.2,32.0,29.50,NNE,27,0.0,0.0,97,0.01,,,0.53,weatherlink.com 1.10,2013-02-27 01:44:00,
2013-02-26 19:59:00,32.2,32.0,29.50,NNE,19,0.0,0.0,97,0.01,,,0.53,weatherlink.com 1.10,2013-02-27 01:59:00,
2013-02-26 20:14:00,32.2,32.0,29.51,NNE,26,0.0,0.0,97,0.00,,,0.53,weatherlink.com 1.10,2013-02-27 02:14:00,
2013-02-26 20:29:00,32.3,32.0,29.52,NNE,26,0.0,0.0,97,0.00,,,0.53,weatherlink.com 1.10,2013-02-27 02:29:00,
2013-02-26 20:44:00,32.3,32.0,29.52,NNE,29,0.0,0.0,97,0.00,,,0.53,weatherlink.com 1.10,2013-02-27 02:44:00,
2013-02-26 21:14:00,32.3,32.0,29.52,NE,35,0.0,0.0,97,0.00,,,0.53,weatherlink.com 1.10,2013-02-27 03:14:00,
2013-02-26 21:29:00,32.3,32.0,29.52,NNE,19,0.0,0.0,97,0.00,,,0.53,weatherlink.com 1.10,2013-02-27 03:29:00,
2013-02-26 21:44:00,32.3,32.0,29.53,NNE,27,0.0,0.0,97,0.00,,,0.53,weatherlink.com 1.10,2013-02-27 03:44:00,
2013-02-26 21:59:00,32.3,32.0,29.53,North,5,0.0,0.0,97,0.00,,,0.53,weatherlink.com 1.10,2013-02-27 03:59:00,
2013-02-26 22:14:00,32.3,32.0,29.53,NNE,13,0.0,0.0,97,0.00,,,0.53,weatherlink.com 1.10,2013-02-27 04:14:00,
2013-02-26 22:29:00,32.3,32.0,29.53,North,5,0.0,0.0,97,0.00,,,0.53,weatherlink.com 1.10,2013-02-27 04:29:00,
2013-02-26 22:44:00,32.3,32.0,29.54,North,355,0.0,0.0,97,0.00,,,0.53,weatherlink.com 1.10,2013-02-27 04:44:00,
2013-02-26 22:59:00,32.3,32.0,29.54,NNW,345,0.0,0.0,97,0.00,,,0.00,weatherlink.com 1.10,2013-02-27 04:59:00,
2013-02-26 23:14:00,32.3,32.0,29.54,NNW,334,0.0,0.0,97,0.00,,,0.00,weatherlink.com 1.10,2013-02-27 05:14:00,
2013-02-26 23:29:00,32.2,32.0,29.54,NNW,335,0.0,0.0,97,0.00,,,0.00,weatherlink.com 1.10,2013-02-27 05:29:00,
2013-02-26 23:44:00,32.3,32.0,29.55,NNW,334,0.0,0.0,97,0.00,,,0.00,weatherlink.com 1.10,2013-02-27 05:44:00,
2013-02-26 23:59:00,32.3,32.0,29.55,NNW,331,0.0,0.0,97,0.00,,,0.00,weatherlink.com 1.10,2013-02-27 05:59:00,